Dalhart, Texas
Current Conditions -  °F | °C
As of 5:53 PM on Saturday 25 Oct 2014 (Local Time) from KDHT Reporting Station
Clear Clear  
Wind Chill: 86°   Ceiling: Unl
Heat Index: 86°   Visibility: 10mi
Dew Point: 37°   Wind: 16mph
Humidity: 18%   Direction: 190°S
Pressure: 30.06"   Gusts: NA
Location:  36.06°N, 102.52°W
Report Text: KDHT 252253Z AUTO 19014KT 10SM CLR 30/03 A3006 RMK AO2 SLP132 T03000028
Loading
Personal Weather Stations






























Interactive Weather Map
Tropical Storm Tracking
New forecast layout! Learn more

10-Day Weather Forecast

Advertisements
Track Severe Weather on mobile